KWST/WST METAR and TAF weather

Enter ICAO airport designator
Station Type Date Time Source
KWST METAR 2018/12/12 07:53 UTC NOAA

KWST 120753Z AUTO 32006KT 10SM OVC060 01/M06 A2990 RMK AO2 SLP127 T00111056


Station Type Date Time Source
KWST Decoded METAR 2018/12/12 07:53 UTC NOAA

WESTERLY STATE AIRPORT, RI, United States (KWST) 41-21N 071-48W 21M
Dec 12, 2018 - 02:53 AM EST / 2018.12.12 0753 UTC
Wind: from the NW (320 degrees) at 7 MPH (6 KT):0
Visibility: 10 mile(s):0
Sky conditions: overcast
Temperature: 34.0 F (1.1 C)
Windchill: 28 F (-2 C):1
Dew Point: 21.9 F (-5.6 C)
Relative Humidity: 60%
Pressure (altimeter): 29.9 in. Hg (1012 hPa)
ob: KWST 120753Z AUTO 32006KT 10SM OVC060 01/M06 A2990 RMK AO2 SLP127 T00111056
cycle: 8

Station Type Date Time Source
KWST TAF UTC NOAA

Error!


Example: see airport list